createdAt,value
2023-05-21T00:01:50.164Z,97874.76
2023-05-21T00:04:18.498Z,97874.58
2023-05-21T00:06:46.770Z,97870.42
2023-05-21T00:09:14.677Z,97865.39
2023-05-21T00:11:42.908Z,97862.45
2023-05-21T00:14:10.876Z,97857.50
2023-05-21T00:16:40.035Z,97854.00
2023-05-21T00:19:08.421Z,97852.05
2023-05-21T00:21:36.546Z,97856.08
2023-05-21T00:24:04.933Z,97852.23
2023-05-21T00:26:32.995Z,97853.15
2023-05-21T00:29:01.681Z,97853.88
2023-05-21T00:31:30.497Z,97847.95
2023-05-21T00:33:58.646Z,97847.55
2023-05-21T00:36:26.824Z,97846.59
2023-05-21T00:38:55.101Z,97846.39
2023-05-21T00:41:24.299Z,97848.67
2023-05-21T00:43:53.181Z,97854.08
2023-05-21T00:46:21.781Z,97848.71
2023-05-21T00:48:51.156Z,97842.17
2023-05-21T00:51:21.938Z,97841.45
2023-05-21T00:53:52.725Z,97842.48
2023-05-21T00:56:23.004Z,97839.66
2023-05-21T00:58:52.248Z,97836.95
2023-05-21T01:01:20.586Z,97836.81
2023-05-21T01:03:48.847Z,97833.45
2023-05-21T01:06:17.269Z,97833.21
2023-05-21T01:08:45.576Z,97834.27
2023-05-21T01:11:15.242Z,97834.19
2023-05-21T01:13:44.742Z,97832.11
2023-05-21T01:16:14.055Z,97834.32
2023-05-21T01:18:45.481Z,97832.85
2023-05-21T01:21:17.605Z,97826.84
2023-05-21T01:23:46.075Z,97826.96
2023-05-21T01:26:14.062Z,97823.05
2023-05-21T01:28:42.367Z,97818.41
2023-05-21T01:31:51.406Z,97813.73
2023-05-21T01:34:24.112Z,97813.04
2023-05-21T01:37:14.107Z,97809.20
2023-05-21T01:39:46.997Z,97805.58
2023-05-21T01:42:16.916Z,97798.48
2023-05-21T01:44:47.399Z,97800.63
2023-05-21T01:47:17.241Z,97799.34
2023-05-21T01:49:46.417Z,97799.17
2023-05-21T01:52:14.923Z,97802.17
2023-05-21T01:54:43.270Z,97806.17
2023-05-21T01:57:12.154Z,97805.73
2023-05-21T01:59:40.327Z,97809.23
2023-05-21T02:02:09.188Z,97813.98
2023-05-21T02:04:37.361Z,97818.76
2023-05-21T02:07:05.363Z,97819.36
2023-05-21T02:09:33.855Z,97812.51
2023-05-21T02:12:03.348Z,97810.79
2023-05-21T02:14:33.844Z,97808.33
2023-05-21T02:17:02.154Z,97805.92
2023-05-21T02:19:30.422Z,97801.38
2023-05-21T02:21:58.846Z,97798.54
2023-05-21T02:24:26.938Z,97801.14
2023-05-21T02:26:55.048Z,97801.67
2023-05-21T02:29:23.074Z,97801.41
2023-05-21T02:31:51.432Z,97800.61
2023-05-21T02:34:20.894Z,97798.65
2023-05-21T02:36:52.554Z,97795.23
2023-05-21T02:39:21.208Z,97788.42
2023-05-21T02:41:49.314Z,97785.02
2023-05-21T02:44:19.254Z,97781.02
2023-05-21T02:46:47.403Z,97776.23
2023-05-21T02:49:17.224Z,97779.40
2023-05-21T02:51:46.112Z,97789.98
2023-05-21T02:54:15.157Z,97793.80
2023-05-21T02:56:43.265Z,97793.40
2023-05-21T02:59:11.385Z,97792.02
2023-05-21T03:01:41.700Z,97788.54
2023-05-21T03:04:09.832Z,97791.34
2023-05-21T03:06:37.938Z,97788.25
2023-05-21T03:09:06.347Z,97786.17
2023-05-21T03:11:34.547Z,97784.65
2023-05-21T03:14:02.883Z,97782.30
2023-05-21T03:16:34.757Z,97781.34
2023-05-21T03:19:02.893Z,97781.65
2023-05-21T03:21:32.410Z,97776.38
2023-05-21T03:24:00.741Z,97776.14
2023-05-21T03:26:29.645Z,97777.38
2023-05-21T03:28:58.721Z,97776.59
2023-05-21T03:31:27.527Z,97777.40
2023-05-21T03:34:09.098Z,97775.16
2023-05-21T03:36:37.387Z,97771.89
2023-05-21T03:39:05.522Z,97772.54
2023-05-21T03:41:34.954Z,97770.77
2023-05-21T03:44:08.457Z,97778.73
2023-05-21T03:46:48.790Z,97779.05
2023-05-21T03:49:27.033Z,97778.19
2023-05-21T03:51:56.729Z,97776.08
2023-05-21T03:54:25.209Z,97777.70
2023-05-21T03:56:55.932Z,97778.81
2023-05-21T03:59:24.727Z,97780.98
2023-05-21T04:01:52.696Z,97782.34
2023-05-21T04:04:20.880Z,97782.41
2023-05-21T04:06:51.252Z,97782.34
2023-05-21T04:09:19.458Z,97782.31
2023-05-21T04:11:48.007Z,97785.16
2023-05-21T04:14:16.329Z,97787.93
2023-05-21T04:16:45.619Z,97786.55
2023-05-21T04:19:13.919Z,97789.23
2023-05-21T04:21:45.306Z,97788.79
2023-05-21T04:24:14.336Z,97785.33
2023-05-21T04:26:52.520Z,97779.23
2023-05-21T04:29:21.515Z,97779.67
2023-05-21T04:31:50.997Z,97779.96
2023-05-21T04:34:19.330Z,97783.56
2023-05-21T04:36:48.525Z,97782.29
2023-05-21T04:39:17.275Z,97782.10
2023-05-21T04:41:45.395Z,97781.61
2023-05-21T04:44:15.225Z,97784.95
2023-05-21T04:46:46.254Z,97785.96
2023-05-21T04:49:15.633Z,97778.51
2023-05-21T04:51:44.833Z,97777.63
2023-05-21T04:54:13.131Z,97777.89
2023-05-21T04:56:41.262Z,97778.44
2023-05-21T04:59:09.281Z,97777.64
2023-05-21T05:01:38.735Z,97773.14
2023-05-21T05:04:07.075Z,97772.98
2023-05-21T05:06:35.218Z,97771.77
2023-05-21T05:09:04.806Z,97768.91
2023-05-21T05:11:33.017Z,97769.36
2023-05-21T05:14:01.356Z,97766.83
2023-05-21T05:16:29.740Z,97763.38
2023-05-21T05:18:58.034Z,97764.55
2023-05-21T05:21:27.411Z,97755.85
2023-05-21T05:23:55.681Z,97753.98
2023-05-21T05:26:27.238Z,97749.77
2023-05-21T05:28:55.824Z,97747.39
2023-05-21T05:31:24.159Z,97750.26
2023-05-21T05:33:54.115Z,97748.95
2023-05-21T05:36:23.279Z,97744.05
2023-05-21T05:38:51.584Z,97744.10
2023-05-21T05:41:19.548Z,97739.15
2023-05-21T05:43:48.750Z,97735.69
2023-05-21T05:46:17.236Z,97734.69
2023-05-21T05:48:46.434Z,97733.79
2023-05-21T05:51:15.538Z,97734.00
2023-05-21T05:53:43.691Z,97734.41
2023-05-21T05:56:12.549Z,97728.66
2023-05-21T05:58:40.860Z,97728.27
2023-05-21T06:01:12.081Z,97723.09
2023-05-21T06:03:40.867Z,97722.58
2023-05-21T06:06:13.964Z,97725.50
2023-05-21T06:08:42.568Z,97725.52
2023-05-21T06:11:11.580Z,97721.39
2023-05-21T06:13:39.728Z,97721.02
2023-05-21T06:16:10.211Z,97721.21
2023-05-21T06:18:39.175Z,97721.69
2023-05-21T06:21:07.449Z,97719.61
2023-05-21T06:23:38.051Z,97720.75
2023-05-21T06:26:06.444Z,97718.61
2023-05-21T06:28:34.460Z,97715.44
2023-05-21T06:31:02.675Z,97711.88
2023-05-21T06:33:33.447Z,97709.98
2023-05-21T06:36:02.202Z,97708.39
2023-05-21T06:38:30.982Z,97707.35
2023-05-21T06:41:00.092Z,97701.63
2023-05-21T06:43:45.452Z,97696.05
2023-05-21T06:46:43.313Z,97692.77
2023-05-21T06:49:14.486Z,97688.94
2023-05-21T06:51:42.552Z,97688.67
2023-05-21T06:54:12.050Z,97684.96
2023-05-21T06:56:40.925Z,97684.23
2023-05-21T06:59:09.534Z,97684.64
2023-05-21T07:01:42.581Z,97678.73
2023-05-21T07:04:11.194Z,97676.33
2023-05-21T07:06:39.967Z,97674.65
2023-05-21T07:09:09.074Z,97668.08
2023-05-21T07:11:37.236Z,97664.35
2023-05-21T07:14:05.861Z,97660.22
2023-05-21T07:16:34.967Z,97655.39
2023-05-21T07:19:03.951Z,97653.55
2023-05-21T07:21:32.380Z,97656.39
2023-05-21T07:24:00.688Z,97646.63
2023-05-21T07:26:28.933Z,97648.55
2023-05-21T07:28:57.008Z,97649.31
2023-05-21T07:31:25.786Z,97650.89
2023-05-21T07:33:54.268Z,97647.09
2023-05-21T07:36:26.043Z,97642.94
2023-05-21T07:38:54.203Z,97640.66
2023-05-21T07:41:22.906Z,97637.93
2023-05-21T07:43:51.176Z,97642.23
2023-05-21T07:46:19.284Z,97642.52
2023-05-21T07:48:48.560Z,97644.45
2023-05-21T07:51:16.710Z,97645.65
2023-05-21T07:53:45.227Z,97639.83
2023-05-21T07:56:13.996Z,97632.85
2023-05-21T07:58:44.190Z,97633.95
2023-05-21T08:01:12.474Z,97634.49
2023-05-21T08:03:40.785Z,97632.04
2023-05-21T08:06:09.233Z,97631.48
2023-05-21T08:08:37.296Z,97632.90
2023-05-21T08:11:05.670Z,97628.43
2023-05-21T08:13:34.669Z,97625.61
2023-05-21T08:16:05.016Z,97624.94
2023-05-21T08:18:33.816Z,97623.70
2023-05-21T08:21:02.002Z,97620.86
2023-05-21T08:23:31.559Z,97624.66
2023-05-21T08:26:00.301Z,97622.00
2023-05-21T08:28:30.362Z,97621.39
2023-05-21T08:30:58.416Z,97622.60
2023-05-21T08:33:27.465Z,97620.81
2023-05-21T08:35:56.114Z,97621.95
2023-05-21T08:38:37.259Z,97621.05
2023-05-21T08:41:18.577Z,97622.03
2023-05-21T08:43:50.270Z,97618.41
2023-05-21T08:46:23.808Z,97614.89
2023-05-21T08:48:55.209Z,97616.22
2023-05-21T08:51:23.496Z,97617.00
2023-05-21T08:53:53.674Z,97614.13
2023-05-21T08:56:22.908Z,97612.66
2023-05-21T08:58:54.657Z,97614.48
2023-05-21T09:01:26.850Z,97612.38
2023-05-21T09:04:21.918Z,97612.13
2023-05-21T09:06:58.035Z,97614.39
2023-05-21T09:09:57.509Z,97610.88
2023-05-21T09:12:26.469Z,97606.86
2023-05-21T09:14:58.143Z,97607.27
2023-05-21T09:17:31.244Z,97606.86
2023-05-21T09:20:12.619Z,97608.50
2023-05-21T09:22:52.423Z,97610.52
2023-05-21T09:25:28.214Z,97611.70
2023-05-21T09:27:57.294Z,97612.27
2023-05-21T09:30:29.334Z,97608.15
2023-05-21T09:33:00.404Z,97604.09
2023-05-21T09:35:29.262Z,97604.95
2023-05-21T09:37:57.767Z,97604.41
2023-05-21T09:40:26.182Z,97605.06
2023-05-21T09:42:55.411Z,97601.02
2023-05-21T09:45:23.624Z,97598.32
2023-05-21T09:47:54.679Z,97598.98
2023-05-21T09:50:25.803Z,97597.53
2023-05-21T09:52:55.727Z,97597.08
2023-05-21T09:55:25.923Z,97592.77
2023-05-21T09:57:53.932Z,97593.11
2023-05-21T10:00:27.481Z,97591.80
2023-05-21T10:02:57.507Z,97585.77
2023-05-21T10:05:28.412Z,97582.12
2023-05-21T10:08:03.150Z,97584.70
2023-05-21T10:10:32.593Z,97579.63
2023-05-21T10:13:11.425Z,97578.52
2023-05-21T10:15:44.226Z,97582.11
2023-05-21T10:18:13.801Z,97579.31
2023-05-21T10:20:42.778Z,97573.76
2023-05-21T10:23:11.375Z,97577.44
2023-05-21T10:25:41.318Z,97571.50
2023-05-21T10:28:09.484Z,97567.73
2023-05-21T10:30:38.708Z,97560.09
2023-05-21T10:33:07.894Z,97563.89
2023-05-21T10:35:38.791Z,97558.58
2023-05-21T10:38:09.435Z,97554.83
2023-05-21T10:40:38.103Z,97556.15
2023-05-21T10:43:06.314Z,97552.55
2023-05-21T10:45:50.719Z,97544.84
2023-05-21T10:49:01.131Z,97542.12
2023-05-21T10:51:55.365Z,97549.00
2023-05-21T10:54:32.492Z,97543.75
2023-05-21T10:57:07.088Z,97541.05
2023-05-21T10:59:42.662Z,97538.65
2023-05-21T11:02:14.734Z,97535.31
2023-05-21T11:04:49.219Z,97534.81
2023-05-21T11:07:24.813Z,97532.80
2023-05-21T11:09:53.169Z,97539.09
2023-05-21T11:12:23.540Z,97537.27
2023-05-21T11:14:58.106Z,97532.67
2023-05-21T11:17:44.847Z,97525.91
2023-05-21T11:20:17.462Z,97528.59
2023-05-21T11:22:46.948Z,97521.55
2023-05-21T11:25:15.988Z,97519.77
2023-05-21T11:27:44.237Z,97520.73
2023-05-21T11:30:19.341Z,97517.50
2023-05-21T11:33:14.086Z,97508.64
2023-05-21T11:35:45.508Z,97513.30
2023-05-21T11:38:13.514Z,97517.30
2023-05-21T11:40:54.948Z,97513.52
2023-05-21T11:43:23.221Z,97506.73
2023-05-21T11:45:53.157Z,97502.85
2023-05-21T11:48:27.274Z,97500.94
2023-05-21T11:50:57.648Z,97494.54
2023-05-21T11:53:25.910Z,97491.02
2023-05-21T11:55:57.800Z,97494.21
2023-05-21T11:58:26.739Z,97491.07
2023-05-21T12:00:54.839Z,97484.75
2023-05-21T12:03:27.301Z,97483.33
2023-05-21T12:05:56.109Z,97482.55
2023-05-21T12:08:27.693Z,97488.80
2023-05-21T12:11:00.496Z,97489.14
2023-05-21T12:13:28.914Z,97488.54
2023-05-21T12:15:57.324Z,97489.45
2023-05-21T12:18:26.019Z,97487.80
2023-05-21T12:20:54.228Z,97487.12
2023-05-21T12:23:25.894Z,97483.83
2023-05-21T12:25:54.535Z,97479.86
2023-05-21T12:28:24.845Z,97477.17
2023-05-21T12:30:53.794Z,97474.27
2023-05-21T12:33:25.042Z,97471.77
2023-05-21T12:35:53.233Z,97472.76
2023-05-21T12:38:21.335Z,97474.21
2023-05-21T12:40:49.369Z,97472.70
2023-05-21T12:43:17.402Z,97467.23
2023-05-21T12:45:45.695Z,97464.15
2023-05-21T12:48:13.953Z,97462.80
2023-05-21T12:50:43.332Z,97463.52
2023-05-21T12:53:12.450Z,97461.04
2023-05-21T12:55:40.848Z,97456.71
2023-05-21T12:58:13.453Z,97456.16
2023-05-21T13:00:45.614Z,97455.45
2023-05-21T13:03:14.674Z,97456.30
2023-05-21T13:05:42.885Z,97456.98
2023-05-21T13:08:11.492Z,97455.58
2023-05-21T13:10:39.781Z,97449.13
2023-05-21T13:13:08.359Z,97448.79
2023-05-21T13:15:36.658Z,97447.04
2023-05-21T13:18:04.667Z,97444.36
2023-05-21T13:20:33.259Z,97447.08
2023-05-21T13:23:03.442Z,97439.78
2023-05-21T13:25:33.078Z,97441.26
2023-05-21T13:28:05.653Z,97440.92
2023-05-21T13:30:33.861Z,97442.77
2023-05-21T13:33:02.958Z,97438.73
2023-05-21T13:35:31.245Z,97438.49
2023-05-21T13:37:59.305Z,97441.23
2023-05-21T13:40:27.592Z,97440.27
2023-05-21T13:42:55.845Z,97440.41
2023-05-21T13:45:29.472Z,97432.77
2023-05-21T13:47:58.527Z,97433.23
2023-05-21T13:50:27.039Z,97433.63
2023-05-21T13:52:55.305Z,97431.82
2023-05-21T13:55:23.516Z,97433.96
2023-05-21T13:57:51.858Z,97434.50
2023-05-21T14:00:19.836Z,97431.40
2023-05-21T14:02:48.444Z,97428.88
2023-05-21T14:05:17.191Z,97428.23
2023-05-21T14:07:47.641Z,97424.09
2023-05-21T14:10:15.984Z,97420.48
2023-05-21T14:12:46.233Z,97420.00
2023-05-21T14:15:14.294Z,97417.42
2023-05-21T14:17:42.588Z,97420.16
2023-05-21T14:20:11.478Z,97421.27
2023-05-21T14:22:39.611Z,97419.92
2023-05-21T14:25:08.177Z,97423.64
2023-05-21T14:27:37.961Z,97418.80
2023-05-21T14:30:06.885Z,97418.05
2023-05-21T14:32:34.914Z,97418.16
2023-05-21T14:35:03.370Z,97413.20
2023-05-21T14:37:31.432Z,97413.42
2023-05-21T14:39:59.293Z,97412.55
2023-05-21T14:42:27.358Z,97409.14
2023-05-21T14:44:55.631Z,97405.36
2023-05-21T14:47:24.044Z,97399.67
2023-05-21T14:49:52.199Z,97396.81
2023-05-21T14:52:20.492Z,97389.34
2023-05-21T14:54:48.720Z,97392.62
2023-05-21T14:57:16.817Z,97386.85
2023-05-21T14:59:45.089Z,97386.52
2023-05-21T15:02:13.352Z,97390.80
2023-05-21T15:04:41.471Z,97392.86
2023-05-21T15:07:09.718Z,97397.91
2023-05-21T15:09:37.685Z,97397.31
2023-05-21T15:12:05.752Z,97399.20
2023-05-21T15:14:34.022Z,97411.08
2023-05-21T15:17:02.144Z,97411.23
2023-05-21T15:19:30.333Z,97414.20
2023-05-21T15:21:58.692Z,97414.70
2023-05-21T15:24:26.810Z,97409.25
2023-05-21T15:26:54.682Z,97407.42
2023-05-21T15:29:22.755Z,97403.30
2023-05-21T15:31:50.844Z,97399.61
2023-05-21T15:34:18.830Z,97400.44
2023-05-21T15:36:47.095Z,97397.95
2023-05-21T15:39:15.909Z,97400.73
2023-05-21T15:41:44.440Z,97402.85
2023-05-21T15:44:12.393Z,97403.51
2023-05-21T15:46:40.767Z,97402.66
2023-05-21T15:49:08.973Z,97403.48
2023-05-21T15:51:37.252Z,97402.23
2023-05-21T15:54:06.642Z,97405.17
2023-05-21T15:56:34.707Z,97405.76
2023-05-21T15:59:03.075Z,97403.98
2023-05-21T16:01:31.587Z,97397.27
2023-05-21T16:04:01.203Z,97396.70
2023-05-21T16:06:30.052Z,97398.37
2023-05-21T16:08:58.953Z,97404.30
2023-05-21T16:11:27.842Z,97402.50
2023-05-21T16:13:55.833Z,97400.87
2023-05-21T16:16:24.798Z,97390.20
2023-05-21T16:18:53.921Z,97390.59
2023-05-21T16:21:21.986Z,97402.73
2023-05-21T16:23:50.014Z,97404.35
2023-05-21T16:26:18.304Z,97405.24
2023-05-21T16:28:46.382Z,97404.48
2023-05-21T16:31:14.652Z,97397.30
2023-05-21T16:33:43.132Z,97393.36
2023-05-21T16:36:11.129Z,97393.89
2023-05-21T16:38:39.196Z,97402.16
2023-05-21T16:41:07.351Z,97409.50
2023-05-21T16:43:35.533Z,97412.30
2023-05-21T16:46:03.708Z,97412.16
2023-05-21T16:48:33.009Z,97409.42
2023-05-21T16:51:01.368Z,97407.14
2023-05-21T16:53:29.458Z,97409.81
2023-05-21T16:55:57.614Z,97415.97
2023-05-21T16:58:25.795Z,97412.94
2023-05-21T17:00:54.158Z,97410.30
2023-05-21T17:03:22.497Z,97410.52
2023-05-21T17:05:51.044Z,97405.95
2023-05-21T17:08:19.473Z,97407.48
2023-05-21T17:10:47.876Z,97407.96
2023-05-21T17:13:22.277Z,97406.41
2023-05-21T17:15:51.677Z,97408.29
2023-05-21T17:18:20.011Z,97408.86
2023-05-21T17:20:48.262Z,97414.27
2023-05-21T17:23:16.424Z,97421.33
2023-05-21T17:25:44.805Z,97425.82
2023-05-21T17:28:12.972Z,97428.97
2023-05-21T17:30:41.286Z,97427.98
2023-05-21T17:33:10.603Z,97428.36
2023-05-21T17:35:39.266Z,97431.53
2023-05-21T17:38:08.060Z,97432.30
2023-05-21T17:40:36.420Z,97437.31
2023-05-21T17:43:05.311Z,97441.78
2023-05-21T17:45:33.556Z,97441.49
2023-05-21T17:48:01.637Z,97443.39
2023-05-21T17:50:30.139Z,97441.73
2023-05-21T17:52:58.188Z,97447.83
2023-05-21T17:55:26.362Z,97448.18
2023-05-21T17:57:54.556Z,97450.28
2023-05-21T18:00:22.796Z,97452.48
2023-05-21T18:02:51.062Z,97450.67
2023-05-21T18:05:19.325Z,97451.76
2023-05-21T18:07:47.449Z,97453.30
2023-05-21T18:10:16.226Z,97451.48
2023-05-21T18:12:46.585Z,97451.94
2023-05-21T18:15:15.677Z,97449.47
2023-05-21T18:17:44.438Z,97449.46
2023-05-21T18:20:13.536Z,97453.17
2023-05-21T18:22:41.836Z,97453.94
2023-05-21T18:25:10.811Z,97451.58
2023-05-21T18:27:39.083Z,97451.80
2023-05-21T18:30:08.694Z,97456.77
2023-05-21T18:32:39.739Z,97456.60
2023-05-21T18:35:10.973Z,97457.84
2023-05-21T18:37:42.243Z,97461.54
2023-05-21T18:40:12.061Z,97462.62
2023-05-21T18:42:40.497Z,97464.97
2023-05-21T18:45:10.428Z,97465.67
2023-05-21T18:47:40.451Z,97467.20
2023-05-21T18:50:14.356Z,97472.83
2023-05-21T18:52:42.693Z,97475.20
2023-05-21T18:55:11.045Z,97476.25
2023-05-21T18:57:39.864Z,97482.05
2023-05-21T19:00:09.931Z,97482.50
2023-05-21T19:02:38.507Z,97486.20
2023-05-21T19:05:10.028Z,97489.34
2023-05-21T19:07:38.350Z,97489.02
2023-05-21T19:10:07.898Z,97490.11
2023-05-21T19:12:36.447Z,97493.03
2023-05-21T19:15:04.693Z,97495.90
2023-05-21T19:17:34.807Z,97496.94
2023-05-21T19:20:05.315Z,97502.30
2023-05-21T19:22:34.148Z,97504.16
2023-05-21T19:25:02.441Z,97506.58
2023-05-21T19:27:30.660Z,97515.47
2023-05-21T19:29:58.857Z,97519.61
2023-05-21T19:32:27.136Z,97518.58
2023-05-21T19:34:57.663Z,97522.63
2023-05-21T19:37:26.503Z,97531.26
2023-05-21T19:39:54.559Z,97544.98
2023-05-21T19:42:22.798Z,97549.59
2023-05-21T19:44:50.981Z,97557.29
2023-05-21T19:47:19.143Z,97559.63
2023-05-21T19:49:47.335Z,97559.61
2023-05-21T19:52:15.434Z,97561.11
2023-05-21T19:54:44.685Z,97561.27
2023-05-21T19:57:13.456Z,97549.85
2023-05-21T19:59:41.644Z,97548.94
2023-05-21T20:02:13.358Z,97550.84
2023-05-21T20:04:41.445Z,97556.17
2023-05-21T20:07:09.749Z,97559.41
2023-05-21T20:09:37.883Z,97557.50
2023-05-21T20:12:06.690Z,97559.55
2023-05-21T20:14:35.097Z,97555.19
2023-05-21T20:17:05.893Z,97552.89
2023-05-21T20:19:34.899Z,97558.23
2023-05-21T20:22:03.048Z,97560.23
2023-05-21T20:24:31.311Z,97556.10
2023-05-21T20:27:01.928Z,97555.24
2023-05-21T20:29:30.204Z,97559.07
2023-05-21T20:31:58.359Z,97562.37
2023-05-21T20:34:27.644Z,97559.76
2023-05-21T20:36:58.954Z,97564.63
2023-05-21T20:39:30.077Z,97571.05
2023-05-21T20:41:58.713Z,97573.32
2023-05-21T20:44:27.683Z,97570.63
2023-05-21T20:46:55.786Z,97564.39
2023-05-21T20:49:24.916Z,97568.26
2023-05-21T20:51:54.232Z,97567.06
2023-05-21T20:54:22.395Z,97565.02
2023-05-21T20:56:50.938Z,97561.71
2023-05-21T20:59:19.042Z,97566.00
2023-05-21T21:01:47.100Z,97567.06
2023-05-21T21:04:17.858Z,97570.88
2023-05-21T21:06:47.360Z,97570.44
2023-05-21T21:09:15.535Z,97571.04
2023-05-21T21:11:43.907Z,97573.63
2023-05-21T21:14:13.782Z,97576.98
2023-05-21T21:16:41.851Z,97578.73
2023-05-21T21:19:09.999Z,97584.43
2023-05-21T21:21:38.294Z,97586.66
2023-05-21T21:24:06.825Z,97586.85
2023-05-21T21:26:35.003Z,97587.84
2023-05-21T21:29:03.138Z,97588.49
2023-05-21T21:31:31.216Z,97589.80
2023-05-21T21:33:59.467Z,97589.02
2023-05-21T21:36:29.068Z,97589.88
2023-05-21T21:38:57.670Z,97589.77
2023-05-21T21:41:26.012Z,97591.11
2023-05-21T21:43:54.238Z,97590.70
2023-05-21T21:46:22.651Z,97592.44
2023-05-21T21:48:50.701Z,97595.80
2023-05-21T21:51:20.679Z,97597.63
2023-05-21T21:53:49.815Z,97595.01
2023-05-21T21:56:17.858Z,97596.90
2023-05-21T21:58:46.368Z,97597.66
2023-05-21T22:01:14.355Z,97594.98
2023-05-21T22:03:42.572Z,97596.06
2023-05-21T22:06:10.727Z,97598.53
2023-05-21T22:08:39.268Z,97595.27
2023-05-21T22:11:07.954Z,97593.86
2023-05-21T22:13:36.735Z,97594.92
2023-05-21T22:16:05.736Z,97593.33
2023-05-21T22:18:40.901Z,97591.79
2023-05-21T22:21:11.029Z,97590.21
2023-05-21T22:23:39.200Z,97589.19
2023-05-21T22:26:09.790Z,97589.51
2023-05-21T22:28:38.069Z,97591.10
2023-05-21T22:31:06.469Z,97591.26
2023-05-21T22:33:34.724Z,97590.60
2023-05-21T22:36:02.989Z,97597.40
2023-05-21T22:38:31.182Z,97598.45
2023-05-21T22:40:59.230Z,97601.76
2023-05-21T22:43:27.847Z,97602.95
2023-05-21T22:45:56.183Z,97604.34
2023-05-21T22:48:24.477Z,97601.42
2023-05-21T22:50:53.778Z,97604.30
2023-05-21T22:53:21.844Z,97605.88
2023-05-21T22:55:50.533Z,97608.32
2023-05-21T22:58:19.309Z,97607.48
2023-05-21T23:00:48.313Z,97603.91
2023-05-21T23:03:17.026Z,97604.08
2023-05-21T23:05:45.675Z,97602.55
2023-05-21T23:08:14.365Z,97603.66
2023-05-21T23:10:42.776Z,97601.27
2023-05-21T23:13:12.937Z,97599.16
2023-05-21T23:15:44.069Z,97599.04
2023-05-21T23:18:12.752Z,97598.77
2023-05-21T23:20:41.789Z,97604.97
2023-05-21T23:23:10.660Z,97607.80
2023-05-21T23:25:38.900Z,97604.67
2023-05-21T23:28:07.674Z,97600.99
2023-05-21T23:30:35.932Z,97596.93
2023-05-21T23:33:03.963Z,97590.52
2023-05-21T23:35:32.662Z,97593.36
2023-05-21T23:38:00.851Z,97590.86
2023-05-21T23:40:29.022Z,97588.45
2023-05-21T23:42:57.314Z,97590.34
2023-05-21T23:45:25.440Z,97593.55
2023-05-21T23:47:53.817Z,97593.89
2023-05-21T23:50:22.311Z,97589.65
2023-05-21T23:52:50.624Z,97583.88
2023-05-21T23:55:18.742Z,97581.59
2023-05-21T23:57:47.041Z,97577.83
